Time;durP1;ratioP1;P1;durP2;ratioP2;P2;SDS_P1;SDS_P2;PMS_P1;PMS_P2;Temp;Humidity;BMP_temperature;BMP_pressure;BME280_temperature;BME280_humidity;BME280_pressure;Samples;Min_cycle;Max_cycle;Signal;HPM_P1;HPM_P2
2023/12/15 00:00:36;;;;;;;21.48;14.07;;;6.50;99.90;;;;;;5036058;28;20225;-71
2023/12/15 00:03:22;;;;;;;19.13;12.52;;;6.50;99.90;;;;;;5035816;28;20261;-73
2023/12/15 00:06:08;;;;;;;21.42;13.00;;;6.50;99.90;;;;;;5039278;28;20723;-73
2023/12/15 00:08:54;;;;;;;20.80;13.70;;;6.50;99.90;;;;;;5032879;28;20309;-72
2023/12/15 00:11:39;;;;;;;23.88;13.13;;;6.40;99.90;;;;;;5042325;28;20326;-73
2023/12/15 00:14:25;;;;;;;20.23;12.77;;;6.40;99.90;;;;;;5031124;28;20261;-74
2023/12/15 00:17:12;;;;;;;19.27;11.60;;;6.50;99.90;;;;;;5030908;28;20490;-73
2023/12/15 00:19:58;;;;;;;23.95;15.10;;;6.50;99.90;;;;;;5034940;28;20625;-72
2023/12/15 00:22:43;;;;;;;21.23;13.60;;;6.60;99.90;;;;;;5029633;28;20575;-72
2023/12/15 00:25:29;;;;;;;19.95;12.40;;;6.50;99.90;;;;;;5034112;28;20254;-73
2023/12/15 00:28:15;;;;;;;23.20;12.57;;;6.50;99.90;;;;;;5033681;28;20200;-72
2023/12/15 00:31:00;;;;;;;20.60;13.10;;;6.50;99.90;;;;;;5037782;28;20426;-72
2023/12/15 00:33:47;;;;;;;22.58;13.52;;;6.50;99.90;;;;;;5033076;28;20438;-73
2023/12/15 00:36:33;;;;;;;23.10;11.93;;;6.40;99.90;;;;;;5031247;28;20304;-73
2023/12/15 00:39:19;;;;;;;21.17;13.63;;;6.30;99.90;;;;;;5038046;28;20526;-72
2023/12/15 00:42:05;;;;;;;22.95;13.05;;;6.20;99.90;;;;;;5033736;28;20448;-72
2023/12/15 00:44:51;;;;;;;23.15;13.65;;;6.20;99.90;;;;;;5038610;28;20247;-73
2023/12/15 00:47:37;;;;;;;19.17;13.35;;;6.20;99.90;;;;;;5029077;28;20755;-72
2023/12/15 00:50:24;;;;;;;25.55;13.70;;;6.30;99.90;;;;;;5036943;28;20226;-72
2023/12/15 00:53:09;;;;;;;28.92;15.05;;;6.30;99.90;;;;;;5035429;28;20223;-72
2023/12/15 00:55:55;;;;;;;22.80;14.05;;;6.30;99.90;;;;;;5033126;28;20213;-72
2023/12/15 00:58:40;;;;;;;23.80;13.83;;;6.40;99.90;;;;;;5037629;28;20222;-72
2023/12/15 01:01:26;;;;;;;27.88;13.82;;;6.40;99.90;;;;;;5045345;28;20990;-72
2023/12/15 01:04:12;;;;;;;24.80;14.47;;;6.50;99.90;;;;;;5046651;28;20275;-75
2023/12/15 01:06:59;;;;;;;26.63;15.15;;;6.50;99.90;;;;;;5040612;28;20424;-72
2023/12/15 01:09:45;;;;;;;22.60;13.05;;;6.30;99.90;;;;;;5031057;28;20223;-72
2023/12/15 01:12:30;;;;;;;21.17;12.82;;;6.30;99.90;;;;;;5042928;28;20225;-72
2023/12/15 01:15:16;;;;;;;24.48;16.08;;;6.40;99.90;;;;;;5053136;28;20209;-73
2023/12/15 01:18:02;;;;;;;24.30;15.25;;;6.40;99.90;;;;;;5031414;28;20241;-72
2023/12/15 01:20:48;;;;;;;24.05;14.18;;;6.40;99.90;;;;;;5037512;28;20296;-73
2023/12/15 01:23:36;;;;;;;21.58;13.00;;;6.30;99.90;;;;;;5043769;28;20327;-72
2023/12/15 01:26:21;;;;;;;22.97;14.20;;;6.20;99.90;;;;;;5037564;28;20208;-73
2023/12/15 01:29:07;;;;;;;23.77;13.10;;;6.20;99.90;;;;;;5039051;28;20456;-73
2023/12/15 01:31:53;;;;;;;26.25;14.75;;;6.30;99.90;;;;;;5040197;28;20210;-73
2023/12/15 01:34:38;;;;;;;27.58;15.60;;;6.30;99.90;;;;;;5043770;28;20289;-74
2023/12/15 01:37:24;;;;;;;22.93;15.07;;;6.30;99.90;;;;;;5033889;28;20233;-72
2023/12/15 01:40:12;;;;;;;26.00;14.60;;;6.30;99.90;;;;;;5039809;28;20582;-72
2023/12/15 01:43:00;;;;;;;28.20;15.17;;;6.20;99.90;;;;;;5036671;28;20578;-72
2023/12/15 01:45:46;;;;;;;23.47;14.43;;;6.10;99.90;;;;;;5036208;28;20873;-72
2023/12/15 01:48:32;;;;;;;25.27;14.70;;;6.00;99.90;;;;;;5045810;28;20444;-72
2023/12/15 01:51:18;;;;;;;26.95;14.40;;;6.10;99.90;;;;;;5039499;28;20210;-72
2023/12/15 01:54:04;;;;;;;25.05;14.50;;;6.10;99.90;;;;;;5043385;28;20209;-72
2023/12/15 01:56:51;;;;;;;25.48;14.27;;;6.10;99.90;;;;;;5044488;28;20706;-73
2023/12/15 01:59:44;;;;;;;26.23;15.63;;;6.20;99.90;;;;;;5044297;28;20231;-73
2023/12/15 02:02:29;;;;;;;27.60;15.67;;;6.20;99.90;;;;;;5041936;28;20208;-74
2023/12/15 02:05:15;;;;;;;27.33;15.23;;;6.10;99.90;;;;;;5041285;28;20424;-72
2023/12/15 02:08:00;;;;;;;28.55;15.15;;;6.20;99.90;;;;;;5045895;28;20421;-73
2023/12/15 02:10:46;;;;;;;26.90;14.48;;;6.20;99.90;;;;;;5045545;28;20222;-73
2023/12/15 02:13:33;;;;;;;31.33;15.13;;;6.30;99.90;;;;;;5037279;28;20204;-73
2023/12/15 02:16:18;;;;;;;24.33;14.80;;;6.20;99.90;;;;;;5041664;28;20205;-72
2023/12/15 02:19:04;;;;;;;28.57;15.03;;;6.20;99.90;;;;;;5037739;28;20242;-73
2023/12/15 02:21:50;;;;;;;23.90;14.93;;;6.20;99.90;;;;;;5042986;28;20425;-74
2023/12/15 02:24:38;;;;;;;23.83;14.30;;;6.20;99.90;;;;;;5047406;28;20760;-73
2023/12/15 02:27:23;;;;;;;30.90;16.17;;;6.20;99.90;;;;;;5037733;28;20205;-72
2023/12/15 02:30:09;;;;;;;25.00;15.70;;;6.20;99.90;;;;;;5043592;28;20460;-70
2023/12/15 02:32:55;;;;;;;28.43;14.63;;;6.20;99.90;;;;;;5040777;28;20211;-71
2023/12/15 02:35:41;;;;;;;30.02;16.65;;;6.20;99.90;;;;;;5042953;28;20797;-70
2023/12/15 02:38:26;;;;;;;25.00;15.30;;;6.20;99.90;;;;;;5044839;28;20233;-71
2023/12/15 02:41:14;;;;;;;25.27;14.82;;;6.10;99.90;;;;;;5044715;28;20289;-71
2023/12/15 02:43:59;;;;;;;25.42;14.55;;;6.10;99.90;;;;;;5045592;28;20206;-70
2023/12/15 02:46:45;;;;;;;22.90;14.40;;;6.10;99.90;;;;;;5042396;28;20317;-70
2023/12/15 02:49:30;;;;;;;24.73;15.23;;;6.20;99.90;;;;;;5042509;28;20491;-71
2023/12/15 02:52:16;;;;;;;25.70;14.25;;;6.20;99.90;;;;;;5043036;28;20430;-72
2023/12/15 02:55:02;;;;;;;29.95;16.48;;;6.20;99.90;;;;;;5045297;28;20209;-71
2023/12/15 02:57:49;;;;;;;26.70;16.23;;;6.20;99.90;;;;;;5042917;28;20308;-69
2023/12/15 03:00:34;;;;;;;26.45;15.95;;;6.20;99.90;;;;;;5042335;28;20427;-72
2023/12/15 03:03:20;;;;;;;28.77;15.70;;;6.20;99.90;;;;;;5037442;28;20209;-72
2023/12/15 03:06:06;;;;;;;25.70;15.77;;;6.20;99.90;;;;;;5043603;28;20211;-72
2023/12/15 03:08:52;;;;;;;24.75;15.45;;;6.10;99.90;;;;;;5045246;28;20218;-72
2023/12/15 03:11:38;;;;;;;27.33;16.10;;;6.20;99.90;;;;;;5044319;28;20210;-72
2023/12/15 03:14:25;;;;;;;30.33;15.50;;;6.20;99.90;;;;;;5044089;28;20209;-73
2023/12/15 03:17:11;;;;;;;33.45;15.25;;;6.10;99.90;;;;;;5041310;28;20618;-71
2023/12/15 03:19:56;;;;;;;25.33;15.32;;;6.10;99.90;;;;;;5039876;28;20321;-72
2023/12/15 03:22:42;;;;;;;30.23;17.90;;;6.00;99.90;;;;;;5034568;28;20217;-73
2023/12/15 03:25:28;;;;;;;28.83;17.25;;;6.00;99.90;;;;;;5043037;28;20712;-74
2023/12/15 03:28:14;;;;;;;27.85;16.50;;;6.00;99.90;;;;;;5045897;28;20284;-73
2023/12/15 03:31:02;;;;;;;30.92;17.52;;;6.00;99.90;;;;;;5046694;28;20569;-72
2023/12/15 03:33:47;;;;;;;32.65;18.00;;;6.00;99.90;;;;;;5039850;28;20622;-72
2023/12/15 03:36:38;;;;;;;33.88;18.17;;;6.00;99.90;;;;;;5041627;28;20326;-72
2023/12/15 03:39:23;;;;;;;33.58;16.27;;;6.00;99.90;;;;;;5036891;28;20225;-73
2023/12/15 03:42:09;;;;;;;27.33;16.75;;;6.10;99.90;;;;;;5042654;28;20209;-70
2023/12/15 03:44:54;;;;;;;26.27;15.27;;;6.10;99.90;;;;;;5048052;28;20205;-70
2023/12/15 03:47:41;;;;;;;28.90;15.95;;;6.10;99.90;;;;;;5048156;28;20276;-70
2023/12/15 03:50:27;;;;;;;27.17;15.38;;;6.10;99.90;;;;;;5043696;28;20616;-70
2023/12/15 03:53:13;;;;;;;27.95;15.52;;;6.10;99.90;;;;;;5045488;28;20205;-71
2023/12/15 03:55:58;;;;;;;30.20;15.80;;;6.00;99.90;;;;;;5042727;28;20266;-71
2023/12/15 03:58:44;;;;;;;24.25;15.40;;;6.00;99.90;;;;;;5048275;28;20835;-71
2023/12/15 04:01:30;;;;;;;25.23;15.90;;;6.00;99.90;;;;;;5041245;28;20210;-70
2023/12/15 04:04:17;;;;;;;25.70;15.07;;;6.00;99.90;;;;;;5045841;28;20248;-70
2023/12/15 04:07:03;;;;;;;27.48;14.90;;;6.00;99.90;;;;;;5042795;28;20807;-71
2023/12/15 04:09:49;;;;;;;26.77;15.63;;;6.20;99.90;;;;;;5043279;28;20280;-72
2023/12/15 04:12:34;;;;;;;29.27;17.58;;;6.20;99.90;;;;;;5044919;28;20431;-71
2023/12/15 04:15:20;;;;;;;26.42;16.80;;;6.10;99.90;;;;;;5042843;28;20271;-70
2023/12/15 04:18:07;;;;;;;29.55;15.68;;;6.10;99.90;;;;;;5042012;28;20365;-70
2023/12/15 04:20:54;;;;;;;25.48;15.13;;;6.00;99.90;;;;;;5039885;28;20678;-71
2023/12/15 04:23:40;;;;;;;23.98;15.18;;;5.90;99.90;;;;;;5045023;28;20697;-70
2023/12/15 04:26:26;;;;;;;31.27;15.53;;;5.90;99.90;;;;;;5036769;28;20691;-71
2023/12/15 04:29:12;;;;;;;22.83;13.88;;;5.90;99.90;;;;;;5047115;28;20808;-72
2023/12/15 04:31:57;;;;;;;27.25;14.05;;;5.80;99.90;;;;;;5047644;28;20292;-73
2023/12/15 04:34:43;;;;;;;23.30;15.68;;;5.70;99.90;;;;;;5042136;28;20226;-73
2023/12/15 04:37:30;;;;;;;24.55;15.23;;;5.60;99.90;;;;;;5045480;28;20221;-73
2023/12/15 04:40:16;;;;;;;25.27;14.00;;;5.60;99.90;;;;;;5050070;28;20248;-72
2023/12/15 04:43:02;;;;;;;25.70;13.97;;;5.50;99.90;;;;;;5046895;28;20201;-73
2023/12/15 04:45:47;;;;;;;18.58;12.77;;;5.40;99.90;;;;;;5042489;28;20798;-72
2023/12/15 04:48:33;;;;;;;20.75;12.98;;;5.30;99.90;;;;;;5045545;28;20217;-74
2023/12/15 04:51:19;;;;;;;31.40;12.83;;;5.20;99.90;;;;;;5046572;28;20204;-73
2023/12/15 04:54:06;;;;;;;22.75;13.02;;;5.20;99.90;;;;;;5042758;28;20484;-73
2023/12/15 04:56:51;;;;;;;18.13;12.00;;;5.10;99.90;;;;;;5048144;28;20570;-72
2023/12/15 04:59:39;;;;;;;18.45;11.52;;;5.20;99.90;;;;;;5049559;28;20310;-77
2023/12/15 05:02:25;;;;;;;19.17;12.45;;;5.10;99.90;;;;;;5040385;28;20826;-72
2023/12/15 05:05:10;;;;;;;20.52;12.55;;;5.20;99.90;;;;;;5048907;28;20210;-72
2023/12/15 05:07:56;;;;;;;21.55;12.07;;;5.20;99.90;;;;;;5051090;28;20209;-72
2023/12/15 05:10:43;;;;;;;26.48;12.50;;;5.30;99.90;;;;;;5048862;28;20560;-74
2023/12/15 05:13:29;;;;;;;23.33;13.85;;;5.40;99.90;;;;;;5039825;28;20634;-72
2023/12/15 05:16:15;;;;;;;23.10;13.15;;;5.40;99.90;;;;;;5042997;28;20670;-73
2023/12/15 05:19:00;;;;;;;20.42;13.15;;;5.40;99.90;;;;;;5046118;28;20235;-72
2023/12/15 05:21:46;;;;;;;24.30;13.73;;;5.50;99.90;;;;;;5046569;28;20245;-73
2023/12/15 05:24:34;;;;;;;24.27;13.23;;;5.70;99.90;;;;;;5040020;28;20280;-72
2023/12/15 05:27:21;;;;;;;23.00;14.23;;;5.70;99.90;;;;;;5051419;28;20207;-73
2023/12/15 05:30:08;;;;;;;20.60;13.30;;;5.70;99.90;;;;;;5049128;28;20304;-73
2023/12/15 05:32:53;;;;;;;24.05;14.70;;;5.70;99.90;;;;;;5049191;28;20461;-72
2023/12/15 05:35:39;;;;;;;24.15;13.15;;;5.50;99.90;;;;;;5049604;28;20272;-72
2023/12/15 05:38:24;;;;;;;19.57;13.40;;;5.50;99.90;;;;;;5045332;28;20213;-73
2023/12/15 05:41:10;;;;;;;21.65;13.15;;;5.60;99.90;;;;;;5044105;28;20426;-74
2023/12/15 05:43:57;;;;;;;17.70;12.15;;;5.60;99.90;;;;;;5048590;28;20222;-72
2023/12/15 05:46:43;;;;;;;19.88;12.70;;;5.50;99.90;;;;;;5052094;28;20206;-73
2023/12/15 05:49:28;;;;;;;21.70;12.15;;;5.50;99.90;;;;;;5050965;28;20397;-73
2023/12/15 05:52:15;;;;;;;23.55;14.02;;;5.60;99.90;;;;;;5045839;28;20206;-72
2023/12/15 05:55:01;;;;;;;19.30;11.43;;;5.50;99.90;;;;;;5047561;28;20209;-73
2023/12/15 05:57:47;;;;;;;24.93;12.77;;;5.70;99.90;;;;;;5041368;28;20411;-73
2023/12/15 06:00:34;;;;;;;21.40;12.65;;;5.60;99.90;;;;;;5040929;28;20444;-72
2023/12/15 06:03:19;;;;;;;20.65;11.68;;;5.60;99.90;;;;;;5049977;28;20321;-72
2023/12/15 06:06:05;;;;;;;21.00;13.50;;;5.60;99.90;;;;;;5043158;28;20244;-73
2023/12/15 06:08:51;;;;;;;19.02;11.13;;;5.50;99.90;;;;;;5048385;28;20320;-74
2023/12/15 06:11:40;;;;;;;25.73;14.32;;;5.40;99.90;;;;;;5049601;28;20199;-73
2023/12/15 06:14:26;;;;;;;19.08;12.15;;;5.40;99.90;;;;;;5038621;28;20201;-73
2023/12/15 06:17:13;;;;;;;22.90;12.70;;;5.60;99.90;;;;;;5050508;28;20211;-72
2023/12/15 06:19:58;;;;;;;20.07;12.27;;;5.70;99.90;;;;;;5048936;28;20491;-73
2023/12/15 06:22:44;;;;;;;22.45;13.10;;;5.70;99.90;;;;;;5044763;28;20394;-74
2023/12/15 06:25:30;;;;;;;17.48;12.05;;;5.80;99.90;;;;;;5049422;28;20220;-74
2023/12/15 06:28:15;;;;;;;17.58;11.32;;;5.80;99.90;;;;;;5048557;28;20201;-74
2023/12/15 06:31:01;;;;;;;17.40;12.13;;;5.80;99.90;;;;;;5046396;28;20208;-74
2023/12/15 06:33:49;;;;;;;16.63;11.40;;;5.80;99.90;;;;;;5048939;28;20429;-74
2023/12/15 06:36:34;;;;;;;18.80;11.67;;;5.90;99.90;;;;;;5045233;28;20318;-74
2023/12/15 06:39:20;;;;;;;22.33;12.43;;;5.80;99.90;;;;;;5049539;28;20595;-74
2023/12/15 06:42:06;;;;;;;20.48;13.25;;;5.80;99.90;;;;;;5043073;28;20207;-73
2023/12/15 06:44:51;;;;;;;20.48;13.35;;;5.80;99.90;;;;;;5048021;28;20604;-73
2023/12/15 06:47:38;;;;;;;20.38;12.60;;;5.70;99.90;;;;;;5042917;28;20690;-74
2023/12/15 06:50:25;;;;;;;22.05;12.95;;;5.60;99.90;;;;;;5042072;28;20311;-74
2023/12/15 06:53:11;;;;;;;18.38;12.05;;;5.60;99.90;;;;;;5046455;28;20219;-74
2023/12/15 06:55:58;;;;;;;18.70;10.90;;;5.50;99.90;;;;;;5048343;28;20679;-74
2023/12/15 06:58:43;;;;;;;20.38;12.52;;;5.50;99.90;;;;;;5050350;28;20484;-73
2023/12/15 07:01:29;;;;;;;20.03;12.20;;;5.50;99.90;;;;;;5048293;28;20297;-73
2023/12/15 07:04:15;;;;;;;19.25;11.45;;;5.40;99.90;;;;;;5049436;28;20425;-74
2023/12/15 07:07:02;;;;;;;21.70;11.50;;;5.30;99.90;;;;;;5048595;28;20208;-74
2023/12/15 07:09:47;;;;;;;19.25;12.55;;;5.20;99.90;;;;;;5049966;28;20336;-73
2023/12/15 07:12:33;;;;;;;18.50;12.20;;;5.10;99.90;;;;;;5047539;28;20198;-73
2023/12/15 07:15:19;;;;;;;19.95;12.43;;;5.10;99.90;;;;;;5049954;28;20806;-73
2023/12/15 07:18:05;;;;;;;17.00;11.82;;;5.10;99.90;;;;;;5047187;28;20594;-73
2023/12/15 07:20:50;;;;;;;20.17;11.90;;;5.00;99.90;;;;;;5040705;28;20202;-74
2023/12/15 07:23:38;;;;;;;21.08;13.02;;;5.00;99.90;;;;;;5049903;28;20728;-73
2023/12/15 07:26:24;;;;;;;17.80;11.48;;;5.00;99.90;;;;;;5049730;28;20699;-73
2023/12/15 07:29:10;;;;;;;19.58;10.73;;;5.10;99.90;;;;;;5045439;28;20355;-74
2023/12/15 07:31:55;;;;;;;18.77;12.20;;;5.10;99.90;;;;;;5048843;28;20695;-73
2023/12/15 07:34:41;;;;;;;16.75;11.30;;;5.20;99.90;;;;;;5048705;28;20206;-74
2023/12/15 07:37:27;;;;;;;16.80;11.50;;;5.30;99.90;;;;;;5043541;28;20200;-74
2023/12/15 07:40:14;;;;;;;20.20;11.52;;;5.30;99.90;;;;;;5047812;28;20622;-74
2023/12/15 07:43:00;;;;;;;16.98;10.73;;;5.40;99.90;;;;;;5047855;28;20345;-74
2023/12/15 07:45:46;;;;;;;20.63;11.93;;;5.50;99.90;;;;;;5049740;28;20200;-74
2023/12/15 07:48:31;;;;;;;18.92;11.27;;;5.50;99.90;;;;;;5049346;28;20236;-73
2023/12/15 07:51:18;;;;;;;13.95;9.18;;;5.50;99.90;;;;;;5044761;28;20204;-72
2023/12/15 07:54:04;;;;;;;20.23;11.77;;;5.50;99.90;;;;;;5047303;28;20719;-73
2023/12/15 07:56:51;;;;;;;17.98;10.75;;;5.60;99.90;;;;;;5043650;28;20245;-73
2023/12/15 07:59:36;;;;;;;18.85;10.75;;;5.70;99.90;;;;;;5049559;28;20248;-73
2023/12/15 08:02:22;;;;;;;15.07;9.80;;;5.70;99.90;;;;;;5049791;28;20709;-73
2023/12/15 08:05:07;;;;;;;18.95;11.85;;;5.80;99.90;;;;;;5052763;28;20209;-73
2023/12/15 08:07:53;;;;;;;17.67;10.50;;;5.80;99.90;;;;;;5053606;28;20263;-73
2023/12/15 08:10:39;;;;;;;18.30;12.13;;;5.80;99.90;;;;;;5051323;28;20276;-74
2023/12/15 08:13:26;;;;;;;15.63;9.70;;;5.90;99.90;;;;;;5054077;28;20798;-74
2023/12/15 08:16:12;;;;;;;17.17;11.43;;;5.90;99.90;;;;;;5051049;28;20512;-73
2023/12/15 08:18:58;;;;;;;18.67;10.88;;;5.90;99.90;;;;;;5044139;28;20480;-73
2023/12/15 08:21:43;;;;;;;19.67;11.10;;;5.90;99.90;;;;;;5038903;28;20205;-73
2023/12/15 08:24:29;;;;;;;19.43;11.63;;;6.00;99.90;;;;;;5042515;28;20805;-74
2023/12/15 08:27:16;;;;;;;23.40;12.90;;;5.90;99.90;;;;;;5036573;28;20421;-74
2023/12/15 08:30:03;;;;;;;19.10;11.33;;;5.90;99.90;;;;;;5036386;28;20229;-74
2023/12/15 08:32:50;;;;;;;17.97;10.70;;;6.00;99.90;;;;;;5034395;28;20520;-73
2023/12/15 08:35:35;;;;;;;19.43;10.93;;;6.20;99.90;;;;;;5042372;28;20458;-74
2023/12/15 08:38:21;;;;;;;15.63;11.07;;;6.10;99.90;;;;;;5034100;28;20532;-72
2023/12/15 08:41:07;;;;;;;16.33;10.43;;;6.20;99.90;;;;;;5042273;28;20802;-71
2023/12/15 08:43:53;;;;;;;14.70;10.33;;;6.30;99.90;;;;;;5033358;28;20438;-72
2023/12/15 08:46:40;;;;;;;17.83;11.02;;;6.40;99.90;;;;;;5034005;28;21048;-71
2023/12/15 08:49:26;;;;;;;17.17;11.20;;;6.40;99.90;;;;;;5027783;28;20730;-71
2023/12/15 08:52:12;;;;;;;16.65;9.85;;;6.40;99.90;;;;;;5042164;28;20705;-71
2023/12/15 08:54:58;;;;;;;18.10;10.82;;;6.50;99.90;;;;;;5037523;28;20226;-71
2023/12/15 08:57:43;;;;;;;17.33;10.93;;;6.50;99.90;;;;;;5041641;28;20693;-71
2023/12/15 09:00:29;;;;;;;16.30;10.60;;;6.50;99.90;;;;;;5026967;28;20996;-72
2023/12/15 09:03:17;;;;;;;17.50;11.63;;;6.50;99.90;;;;;;5033813;28;20992;-71
2023/12/15 09:06:02;;;;;;;15.60;11.27;;;6.60;99.90;;;;;;5034690;28;20434;-71
2023/12/15 09:08:48;;;;;;;15.70;10.10;;;6.70;99.90;;;;;;5036741;28;20510;-71
2023/12/15 09:11:33;;;;;;;19.23;11.80;;;6.70;99.90;;;;;;5033938;28;20480;-71
2023/12/15 09:14:21;;;;;;;17.10;11.93;;;6.80;99.90;;;;;;5030572;28;20475;-71
2023/12/15 09:17:11;;;;;;;19.77;13.43;;;6.90;99.90;;;;;;5040976;28;20451;-71
2023/12/15 09:19:58;;;;;;;22.23;12.70;;;6.90;99.90;;;;;;5034424;28;20481;-71
2023/12/15 09:22:44;;;;;;;20.10;13.10;;;7.00;99.90;;;;;;5037760;28;20553;-71
2023/12/15 09:25:29;;;;;;;24.03;17.17;;;7.00;99.90;;;;;;5034283;28;20450;-71
2023/12/15 09:28:15;;;;;;;19.53;14.53;;;7.00;99.90;;;;;;5033445;28;20423;-70
2023/12/15 09:31:01;;;;;;;24.97;15.10;;;7.10;99.90;;;;;;5034295;28;20484;-71
2023/12/15 09:33:47;;;;;;;27.10;16.17;;;7.20;99.90;;;;;;5033424;28;20434;-71
2023/12/15 09:36:35;;;;;;;27.53;15.60;;;7.20;99.90;;;;;;5028991;28;20534;-71
2023/12/15 09:39:22;;;;;;;23.27;14.90;;;7.30;99.90;;;;;;5041810;28;20601;-71
2023/12/15 09:42:08;;;;;;;27.90;15.70;;;7.40;99.90;;;;;;5034272;28;20430;-72
2023/12/15 09:44:53;;;;;;;27.90;16.17;;;7.40;99.90;;;;;;5034371;28;20478;-72
2023/12/15 09:47:45;;;;;;;21.00;15.90;;;7.40;99.90;;;;;;5029721;28;20473;-71
2023/12/15 09:50:33;;;;;;;24.43;15.67;;;7.40;99.90;;;;;;5030707;28;20859;-71
2023/12/15 09:53:22;;;;;;;32.67;17.63;;;7.40;99.90;;;;;;5037497;28;20457;-71
2023/12/15 09:56:09;;;;;;;29.70;15.70;;;7.40;99.90;;;;;;5043211;28;20865;-71
2023/12/15 09:58:55;;;;;;;22.03;15.83;;;7.30;99.90;;;;;;5034861;28;20420;-72
2023/12/15 10:01:40;;;;;;;23.27;15.13;;;7.40;99.90;;;;;;5035442;28;20489;-71
2023/12/15 10:04:26;;;;;;;23.10;15.67;;;7.20;99.90;;;;;;5031835;28;20403;-71
2023/12/15 10:07:12;;;;;;;22.07;15.37;;;7.20;99.90;;;;;;5044595;28;20428;-72
2023/12/15 10:09:59;;;;;;;19.53;14.27;;;7.30;99.90;;;;;;5041433;28;20821;-71
2023/12/15 10:12:44;;;;;;;20.50;15.50;;;7.30;99.90;;;;;;5034481;28;20438;-71
2023/12/15 10:15:30;;;;;;;23.80;15.10;;;7.30;99.90;;;;;;5035398;28;20442;-72
2023/12/15 10:18:16;;;;;;;21.90;15.43;;;7.30;99.90;;;;;;5036497;28;20500;-71
2023/12/15 10:21:04;;;;;;;24.70;16.17;;;7.30;99.90;;;;;;5041512;28;20536;-71
2023/12/15 10:23:49;;;;;;;21.47;14.70;;;7.20;99.90;;;;;;5037676;28;20545;-71
2023/12/15 10:26:37;;;;;;;20.77;13.70;;;7.20;99.90;;;;;;5034131;28;20429;-71
2023/12/15 10:29:23;;;;;;;24.50;16.07;;;7.30;99.90;;;;;;5037461;28;20438;-71
2023/12/15 10:32:09;;;;;;;23.27;14.57;;;7.30;99.90;;;;;;5037229;28;20488;-71
2023/12/15 10:34:54;;;;;;;22.77;15.37;;;7.40;99.90;;;;;;5037246;28;20520;-72
2023/12/15 10:37:41;;;;;;;24.97;14.60;;;7.40;99.90;;;;;;5046025;28;20816;-71
2023/12/15 10:40:27;;;;;;;23.50;15.40;;;7.40;99.90;;;;;;5034111;28;20482;-71
2023/12/15 10:43:17;;;;;;;21.93;14.73;;;7.40;99.90;;;;;;5046017;28;20757;-71
2023/12/15 10:46:04;;;;;;;22.53;14.70;;;7.40;99.90;;;;;;5042485;28;20789;-71
2023/12/15 10:48:52;;;;;;;23.23;15.10;;;7.50;99.90;;;;;;5034166;28;20544;-71
2023/12/15 10:51:39;;;;;;;20.87;13.53;;;7.50;99.90;;;;;;5035321;28;20871;-71
2023/12/15 10:54:26;;;;;;;20.37;14.17;;;7.40;99.90;;;;;;5041203;28;20479;-71
2023/12/15 10:57:11;;;;;;;21.20;13.33;;;7.40;99.90;;;;;;5035101;28;20439;-71
2023/12/15 10:59:58;;;;;;;21.33;14.00;;;7.40;99.90;;;;;;5034036;28;20486;-71
2023/12/15 11:02:45;;;;;;;22.60;13.67;;;7.50;99.90;;;;;;5029786;28;20441;-71
2023/12/15 11:05:32;;;;;;;16.67;12.93;;;7.50;99.90;;;;;;5028301;28;20987;-73
2023/12/15 11:08:18;;;;;;;18.73;13.63;;;7.50;99.90;;;;;;5036491;28;20424;-73
2023/12/15 11:11:07;;;;;;;20.20;13.70;;;7.50;99.90;;;;;;5036678;28;20504;-73
2023/12/15 11:13:57;;;;;;;19.97;14.70;;;7.50;99.90;;;;;;5041157;28;20429;-73
2023/12/15 11:16:46;;;;;;;19.90;13.87;;;7.60;99.90;;;;;;5034052;28;20961;-73
2023/12/15 11:19:31;;;;;;;18.90;13.37;;;7.60;99.90;;;;;;5027923;28;20483;-73
2023/12/15 11:22:17;;;;;;;18.93;13.70;;;7.60;99.90;;;;;;5041212;28;20498;-73
2023/12/15 11:25:04;;;;;;;22.07;13.83;;;7.70;99.90;;;;;;5037245;28;20434;-72
2023/12/15 11:28:00;;;;;;;20.87;13.10;;;7.70;99.90;;;;;;5034286;28;20498;-73
2023/12/15 11:30:48;;;;;;;27.67;15.83;;;7.70;99.90;;;;;;5044457;28;20430;-73
2023/12/15 11:33:45;;;;;;;19.33;14.47;;;7.70;99.90;;;;;;5032393;28;20434;-72
2023/12/15 11:36:32;;;;;;;27.77;14.73;;;7.80;99.90;;;;;;5034935;28;20426;-72
2023/12/15 11:39:17;;;;;;;20.53;15.27;;;7.70;99.90;;;;;;5032917;28;20446;-72
2023/12/15 11:42:04;;;;;;;19.90;14.03;;;7.70;99.90;;;;;;5035602;28;20572;-72
2023/12/15 11:44:49;;;;;;;29.57;15.13;;;7.70;99.90;;;;;;5040447;28;20413;-72
2023/12/15 11:47:35;;;;;;;20.33;14.40;;;7.70;99.90;;;;;;5028391;28;20441;-72
2023/12/15 11:50:22;;;;;;;22.90;14.80;;;7.80;99.90;;;;;;5034088;28;20798;-73
2023/12/15 11:53:08;;;;;;;21.93;13.80;;;7.80;99.90;;;;;;5036620;28;20429;-73
2023/12/15 11:55:55;;;;;;;22.47;14.47;;;7.80;99.90;;;;;;5037332;28;20431;-73
2023/12/15 11:58:40;;;;;;;17.33;13.23;;;7.80;99.90;;;;;;5029511;28;20452;-72
2023/12/15 12:01:26;;;;;;;20.00;14.40;;;7.90;99.90;;;;;;5033886;28;20478;-73
2023/12/15 12:04:18;;;;;;;18.90;14.43;;;7.90;99.90;;;;;;5036023;28;20429;-73
2023/12/15 12:07:05;;;;;;;21.03;14.27;;;7.90;99.90;;;;;;5034818;28;21160;-73
2023/12/15 12:09:51;;;;;;;22.30;15.30;;;7.80;99.90;;;;;;5034160;28;20478;-73
2023/12/15 12:12:37;;;;;;;25.00;15.73;;;7.80;99.90;;;;;;5033564;28;20421;-72
2023/12/15 12:15:23;;;;;;;23.57;16.37;;;7.70;99.90;;;;;;5041030;28;20749;-73
2023/12/15 12:18:08;;;;;;;28.43;14.40;;;7.70;99.90;;;;;;5035752;28;20433;-73
2023/12/15 12:20:56;;;;;;;20.07;15.00;;;7.70;99.90;;;;;;5040379;28;20495;-74
2023/12/15 12:23:43;;;;;;;20.93;14.77;;;7.70;99.90;;;;;;5029872;28;20431;-75
2023/12/15 12:26:29;;;;;;;22.40;15.80;;;7.70;99.90;;;;;;5035652;28;20396;-75
2023/12/15 12:29:15;;;;;;;23.70;16.87;;;7.60;99.90;;;;;;5040019;28;20436;-73
2023/12/15 12:32:00;;;;;;;25.90;15.73;;;7.60;99.90;;;;;;5041871;28;20519;-73
2023/12/15 12:34:46;;;;;;;21.20;14.57;;;7.60;99.90;;;;;;5038640;28;20437;-73
2023/12/15 12:37:32;;;;;;;24.27;15.40;;;7.70;99.90;;;;;;5028660;28;20507;-72
2023/12/15 12:40:19;;;;;;;20.17;14.57;;;7.70;99.90;;;;;;5041402;28;20472;-75
2023/12/15 12:43:04;;;;;;;23.73;15.90;;;7.70;99.90;;;;;;5044112;28;20902;-72
2023/12/15 12:45:50;;;;;;;22.07;15.73;;;7.70;99.90;;;;;;5035349;28;20439;-74
2023/12/15 12:48:37;;;;;;;27.27;17.27;;;7.70;99.90;;;;;;5029405;28;20454;-74
2023/12/15 12:51:23;;;;;;;25.83;17.47;;;7.70;99.90;;;;;;5038010;28;20529;-74
2023/12/15 12:54:08;;;;;;;27.23;16.73;;;7.70;99.90;;;;;;5039725;28;20795;-73
2023/12/15 12:56:55;;;;;;;21.40;15.70;;;7.70;99.90;;;;;;5043704;28;20437;-73
2023/12/15 12:59:41;;;;;;;23.87;17.00;;;7.70;99.90;;;;;;5034349;28;20584;-73
2023/12/15 13:02:27;;;;;;;20.63;13.40;;;7.70;99.90;;;;;;5043801;28;20508;-73
2023/12/15 13:05:13;;;;;;;26.10;15.20;;;7.70;99.90;;;;;;5046560;28;20808;-73
2023/12/15 13:07:58;;;;;;;21.10;14.23;;;7.70;99.90;;;;;;5039523;28;21093;-73
2023/12/15 13:10:44;;;;;;;28.40;14.70;;;7.60;99.90;;;;;;5034357;28;20982;-73
2023/12/15 13:13:31;;;;;;;19.13;13.97;;;7.70;99.90;;;;;;5052720;28;20395;-73
2023/12/15 13:16:16;;;;;;;22.40;13.80;;;7.70;99.90;;;;;;5045131;28;20417;-73
2023/12/15 13:19:03;;;;;;;18.60;13.90;;;7.70;99.90;;;;;;5041494;28;20461;-73
2023/12/15 13:21:48;;;;;;;18.80;14.20;;;7.70;99.90;;;;;;5052538;28;20470;-73
2023/12/15 13:24:34;;;;;;;18.93;13.60;;;7.70;99.90;;;;;;5038310;28;20937;-73
2023/12/15 13:27:20;;;;;;;21.10;13.30;;;7.70;99.90;;;;;;5038366;28;20440;-76
2023/12/15 13:30:09;;;;;;;21.83;13.70;;;7.70;99.90;;;;;;5045283;28;20455;-74
2023/12/15 13:32:55;;;;;;;24.13;14.77;;;7.70;99.90;;;;;;5044663;28;20477;-76
2023/12/15 13:35:41;;;;;;;24.07;15.30;;;7.70;99.90;;;;;;5039168;28;20427;-75
2023/12/15 13:38:27;;;;;;;17.77;14.20;;;7.60;99.90;;;;;;5040429;28;20504;-73
2023/12/15 13:41:13;;;;;;;22.83;13.80;;;7.60;99.90;;;;;;5043089;28;20971;-74
2023/12/15 13:44:00;;;;;;;19.70;14.30;;;7.60;99.90;;;;;;5046102;28;20836;-73
2023/12/15 13:46:52;;;;;;;20.03;13.77;;;7.70;99.90;;;;;;5035838;28;20426;-70
2023/12/15 13:49:37;;;;;;;22.03;14.17;;;7.70;99.90;;;;;;5035483;28;20462;-75
2023/12/15 13:52:23;;;;;;;24.40;15.40;;;7.70;99.90;;;;;;5048566;28;20429;-75
2023/12/15 13:55:09;;;;;;;24.43;15.10;;;7.70;99.90;;;;;;5048565;28;20431;-75
2023/12/15 13:57:55;;;;;;;18.57;14.67;;;7.60;99.90;;;;;;5040634;28;20449;-73
2023/12/15 14:00:40;;;;;;;17.87;13.80;;;7.60;99.90;;;;;;5042357;28;20518;-71
2023/12/15 14:03:27;;;;;;;22.80;16.87;;;7.60;99.90;;;;;;5036812;28;20997;-70
2023/12/15 14:06:13;;;;;;;19.80;14.93;;;7.50;99.90;;;;;;5039975;28;20435;-73
2023/12/15 14:08:58;;;;;;;21.20;15.87;;;7.60;99.90;;;;;;5037230;28;20976;-73
2023/12/15 14:11:44;;;;;;;25.40;16.90;;;7.70;99.90;;;;;;5031488;28;20470;-70
2023/12/15 14:14:31;;;;;;;24.73;16.50;;;7.70;99.90;;;;;;5040027;28;20418;-70